Terminal Aerodrome Forecast
Issued by NWS Bismarck, ND

Home | Current Version | Previous Version | Graphics & Text | Print | Product List | Glossary On
Versions: 1 2 3 4 5 6 7 8 9 10 11 12 13 14 15 16 17 18 19 20
604
FTUS43 KBIS 190527
TAFBIS
TAF
KBIS 190527Z 1906/2006 06005KT P6SM SKC
     FM190800 11007KT P6SM BKN200 WS020/15035KT
     FM191500 16015KT P6SM OVC130
     FM191800 18015KT P6SM VCSH OVC150
     FM200000 29011KT P6SM OVC100
     FM200300 29007KT P6SM BKN060=

USA.gov is the U.S. government's official web portal to all federal, state and local government web resources and services.